createdAt,value
2022-07-29T00:00:07.060Z,19.11
2022-07-29T00:02:36.893Z,19.08
2022-07-29T00:05:05.917Z,19.06
2022-07-29T00:07:34.140Z,19.04
2022-07-29T00:10:02.038Z,19.01
2022-07-29T00:12:30.079Z,18.98
2022-07-29T00:14:58.713Z,18.95
2022-07-29T00:17:26.903Z,18.93
2022-07-29T00:19:56.153Z,18.89
2022-07-29T00:22:24.033Z,18.87
2022-07-29T00:24:52.031Z,18.83
2022-07-29T00:27:20.152Z,18.82
2022-07-29T00:29:48.108Z,18.77
2022-07-29T00:32:15.984Z,18.75
2022-07-29T00:35:02.334Z,18.71
2022-07-29T00:37:31.734Z,18.68
2022-07-29T00:39:59.599Z,18.64
2022-07-29T00:42:27.369Z,18.61
2022-07-29T00:44:55.307Z,18.59
2022-07-29T00:47:23.093Z,18.55
2022-07-29T00:49:51.075Z,18.52
2022-07-29T00:52:19.156Z,18.49
2022-07-29T00:54:48.386Z,18.47
2022-07-29T00:57:16.519Z,18.41
2022-07-29T00:59:44.497Z,18.38
2022-07-29T01:02:12.445Z,18.36
2022-07-29T01:04:40.914Z,18.33
2022-07-29T01:07:09.701Z,18.31
2022-07-29T01:09:45.555Z,18.28
2022-07-29T01:12:18.881Z,18.28
2022-07-29T01:14:47.867Z,18.26
2022-07-29T01:17:22.299Z,18.22
2022-07-29T01:19:58.199Z,18.20
2022-07-29T01:22:50.424Z,18.16
2022-07-29T01:25:42.850Z,18.12
2022-07-29T01:28:45.469Z,18.09
2022-07-29T01:31:25.088Z,18.05
2022-07-29T01:33:59.836Z,18.02
2022-07-29T01:36:34.468Z,18.00
2022-07-29T01:39:09.738Z,17.97
2022-07-29T01:41:42.181Z,17.94
2022-07-29T01:44:17.535Z,17.91
2022-07-29T01:46:53.433Z,17.88
2022-07-29T01:49:26.340Z,17.85
2022-07-29T01:51:59.535Z,17.82
2022-07-29T01:54:33.139Z,17.79
2022-07-29T01:57:02.995Z,17.76
2022-07-29T01:59:32.035Z,17.71
2022-07-29T02:02:02.933Z,17.66
2022-07-29T02:04:34.130Z,17.62
2022-07-29T02:07:05.812Z,17.62
2022-07-29T02:09:35.902Z,17.59
2022-07-29T02:12:06.604Z,17.55
2022-07-29T02:14:39.215Z,17.54
2022-07-29T02:17:09.333Z,17.52
2022-07-29T02:19:40.403Z,17.51
2022-07-29T02:22:08.752Z,17.48
2022-07-29T02:24:39.140Z,17.48
2022-07-29T02:27:06.790Z,17.46
2022-07-29T02:29:35.301Z,17.44
2022-07-29T02:32:04.769Z,17.42
2022-07-29T02:34:35.463Z,17.38
2022-07-29T02:37:04.731Z,17.37
2022-07-29T02:39:33.497Z,17.37
2022-07-29T02:42:05.687Z,17.35
2022-07-29T02:44:34.841Z,17.33
2022-07-29T02:47:12.420Z,17.33
2022-07-29T02:49:48.342Z,17.31
2022-07-29T02:52:22.196Z,17.31
2022-07-29T02:54:55.986Z,17.33
2022-07-29T02:57:30.991Z,17.31
2022-07-29T03:00:01.230Z,17.29
2022-07-29T03:02:30.539Z,17.29
2022-07-29T03:05:03.746Z,17.28
2022-07-29T03:07:31.737Z,17.27
2022-07-29T03:10:00.279Z,17.27
2022-07-29T03:12:29.291Z,17.27
2022-07-29T03:14:57.470Z,17.27
2022-07-29T03:17:25.413Z,17.28
2022-07-29T03:19:53.099Z,17.27
2022-07-29T03:22:21.978Z,17.26
2022-07-29T03:24:49.645Z,17.26
2022-07-29T03:27:17.403Z,17.25
2022-07-29T03:29:50.026Z,17.25
2022-07-29T03:32:23.882Z,17.25
2022-07-29T03:34:52.786Z,17.24
2022-07-29T03:37:21.760Z,17.24
2022-07-29T03:39:51.279Z,17.24
2022-07-29T03:42:21.938Z,17.24
2022-07-29T03:44:50.795Z,17.25
2022-07-29T03:47:21.515Z,17.25
2022-07-29T03:49:53.705Z,17.27
2022-07-29T03:52:23.249Z,17.27
2022-07-29T03:54:51.541Z,17.27
2022-07-29T03:57:22.327Z,17.27
2022-07-29T03:59:50.904Z,17.28
2022-07-29T04:02:21.931Z,17.28
2022-07-29T04:04:51.370Z,17.29
2022-07-29T04:07:18.946Z,17.31
2022-07-29T04:09:47.786Z,17.35
2022-07-29T04:12:15.300Z,17.39
2022-07-29T04:14:42.829Z,17.41
2022-07-29T04:17:10.803Z,17.43
2022-07-29T04:19:38.441Z,17.43
2022-07-29T04:22:06.138Z,17.47
2022-07-29T04:24:33.815Z,17.49
2022-07-29T04:27:02.633Z,17.50
2022-07-29T04:29:30.150Z,17.53
2022-07-29T04:31:57.834Z,17.56
2022-07-29T04:34:28.044Z,17.61
2022-07-29T04:36:56.132Z,17.67
2022-07-29T04:39:23.672Z,17.72
2022-07-29T04:41:52.543Z,17.76
2022-07-29T04:44:27.662Z,17.80
2022-07-29T04:46:57.764Z,17.86
2022-07-29T04:49:25.688Z,17.90
2022-07-29T04:51:53.359Z,17.95
2022-07-29T04:54:20.924Z,17.98
2022-07-29T04:56:48.584Z,18.03
2022-07-29T04:59:16.485Z,18.08
2022-07-29T05:01:45.469Z,18.12
2022-07-29T05:04:13.949Z,18.16
2022-07-29T05:06:42.135Z,18.19
2022-07-29T05:20:42.407Z,18.39
2022-07-29T05:23:01.876Z,18.49
2022-07-29T05:29:44.775Z,18.67
2022-07-29T05:33:05.411Z,18.72
2022-07-29T05:37:13.830Z,18.77
2022-07-29T05:41:00.974Z,18.81
2022-07-29T05:44:15.481Z,18.82
2022-07-29T05:47:09.116Z,18.86
2022-07-29T05:49:37.665Z,18.87
2022-07-29T05:52:07.364Z,18.89
2022-07-29T05:54:36.816Z,18.93
2022-07-29T05:57:07.816Z,18.98
2022-07-29T05:59:38.736Z,19.04
2022-07-29T06:02:07.233Z,19.12
2022-07-29T06:04:36.145Z,19.20
2022-07-29T06:07:05.254Z,19.29
2022-07-29T06:09:36.205Z,19.42
2022-07-29T06:12:06.902Z,19.56
2022-07-29T06:14:38.960Z,19.73
2022-07-29T06:17:07.552Z,19.88
2022-07-29T06:19:37.335Z,20.04
2022-07-29T06:25:44.261Z,20.52
2022-07-29T06:28:18.361Z,20.70
2022-07-29T06:30:58.848Z,20.86
2022-07-29T06:33:40.979Z,21.09
2022-07-29T06:36:27.306Z,21.21
2022-07-29T06:39:06.882Z,21.37
2022-07-29T06:41:56.759Z,21.59
2022-07-29T06:44:28.592Z,21.67
2022-07-29T06:47:01.247Z,21.78
2022-07-29T06:49:31.660Z,22.13
2022-07-29T06:52:04.045Z,22.17
2022-07-29T06:54:32.950Z,21.95
2022-07-29T06:57:05.616Z,21.84
2022-07-29T06:59:38.205Z,21.83
2022-07-29T07:02:05.919Z,21.88
2022-07-29T07:04:34.397Z,21.97
2022-07-29T07:07:02.465Z,22.01
2022-07-29T07:09:40.185Z,22.04
2022-07-29T07:12:09.126Z,22.04
2022-07-29T07:14:38.075Z,22.03
2022-07-29T07:17:07.944Z,22.25
2022-07-29T07:19:35.673Z,22.67
2022-07-29T07:22:03.827Z,22.83
2022-07-29T07:24:32.498Z,23.21
2022-07-29T07:27:00.185Z,23.50
2022-07-29T07:29:27.905Z,23.87
2022-07-29T07:32:00.950Z,24.28
2022-07-29T07:34:29.816Z,24.61
2022-07-29T07:36:57.392Z,24.61
2022-07-29T07:39:25.977Z,24.87
2022-07-29T07:41:54.439Z,25.26
2022-07-29T07:44:22.407Z,25.86
2022-07-29T07:46:50.565Z,26.55
2022-07-29T07:49:22.726Z,27.33
2022-07-29T07:51:51.239Z,27.94
2022-07-29T07:54:20.546Z,28.30
2022-07-29T07:56:53.099Z,28.33
2022-07-29T07:59:21.549Z,28.98
2022-07-29T08:01:55.910Z,29.60
2022-07-29T08:04:32.136Z,30.85
2022-07-29T08:07:02.562Z,32.01
2022-07-29T08:09:32.269Z,32.76
2022-07-29T08:12:04.037Z,33.58
2022-07-29T08:14:33.021Z,34.28
2022-07-29T08:17:02.619Z,34.50
2022-07-29T08:19:39.732Z,34.03
2022-07-29T08:22:11.046Z,32.73
2022-07-29T08:24:45.804Z,32.19
2022-07-29T08:27:40.650Z,31.87
2022-07-29T08:30:02.324Z,32.16
2022-07-29T08:35:33.381Z,33.85
2022-07-29T08:38:05.302Z,34.16
2022-07-29T08:40:33.904Z,33.26
2022-07-29T08:43:13.856Z,32.22
2022-07-29T08:45:50.654Z,31.83
2022-07-29T08:48:21.251Z,31.27
2022-07-29T08:51:12.229Z,30.73
2022-07-29T08:53:45.279Z,30.31
2022-07-29T08:56:13.824Z,30.31
2022-07-29T08:58:44.262Z,30.09
2022-07-29T09:01:35.238Z,29.77
2022-07-29T09:04:11.786Z,29.16
2022-07-29T09:06:45.534Z,28.90
2022-07-29T09:09:14.622Z,28.40
2022-07-29T09:11:48.818Z,28.24
2022-07-29T09:14:19.539Z,28.01
2022-07-29T09:17:01.162Z,27.85
2022-07-29T09:19:32.529Z,28.11
2022-07-29T09:22:04.215Z,28.26
2022-07-29T09:24:40.697Z,28.92
2022-07-29T09:27:21.984Z,29.82
2022-07-29T09:29:58.178Z,29.83
2022-07-29T09:32:27.443Z,29.69
2022-07-29T09:35:17.727Z,29.72
2022-07-29T09:37:46.948Z,30.10
2022-07-29T09:40:17.077Z,30.09
2022-07-29T09:42:47.079Z,30.41
2022-07-29T09:45:27.611Z,31.22
2022-07-29T09:47:56.686Z,31.00
2022-07-29T09:50:26.659Z,30.61
2022-07-29T09:52:55.709Z,30.40
2022-07-29T09:55:23.754Z,30.29
2022-07-29T09:57:51.810Z,29.83
2022-07-29T10:00:24.243Z,29.15
2022-07-29T10:02:52.940Z,29.33
2022-07-29T10:05:24.273Z,29.85
2022-07-29T10:07:57.337Z,30.80
2022-07-29T10:10:30.531Z,31.45
2022-07-29T10:13:06.365Z,31.54
2022-07-29T10:15:44.602Z,31.26
2022-07-29T10:18:26.234Z,31.07
2022-07-29T10:20:55.730Z,31.12
2022-07-29T10:27:05.886Z,31.46
2022-07-29T10:29:34.170Z,31.38
2022-07-29T10:32:33.556Z,31.23
2022-07-29T10:35:29.523Z,30.83
2022-07-29T10:38:18.894Z,30.80
2022-07-29T10:44:17.059Z,30.15
2022-07-29T10:46:46.084Z,30.18
2022-07-29T10:49:16.766Z,30.19
2022-07-29T10:51:59.683Z,29.91
2022-07-29T10:54:46.464Z,29.99
2022-07-29T10:57:52.551Z,30.27
2022-07-29T11:00:41.911Z,30.80
2022-07-29T11:03:53.730Z,31.27
2022-07-29T11:06:28.176Z,31.90
2022-07-29T11:09:34.915Z,32.06
2022-07-29T11:12:52.844Z,32.29
2022-07-29T11:15:24.958Z,32.39
2022-07-29T11:18:15.070Z,32.42
2022-07-29T11:20:57.091Z,32.56
2022-07-29T11:23:35.939Z,32.56
2022-07-29T11:26:23.687Z,32.50
2022-07-29T11:29:01.351Z,32.63
2022-07-29T11:31:45.710Z,32.34
2022-07-29T11:34:28.061Z,32.11
2022-07-29T11:37:28.110Z,32.61
2022-07-29T11:40:23.589Z,32.86
2022-07-29T11:42:55.033Z,33.15
2022-07-29T11:45:48.375Z,33.21
2022-07-29T11:48:31.449Z,33.48
2022-07-29T11:51:03.117Z,33.64
2022-07-29T11:53:33.394Z,33.79
2022-07-29T11:56:03.829Z,33.65
2022-07-29T11:58:34.341Z,33.31
2022-07-29T12:01:04.635Z,33.58
2022-07-29T12:03:36.825Z,33.89
2022-07-29T12:09:14.342Z,34.26
2022-07-29T12:11:52.544Z,34.56
2022-07-29T12:14:30.471Z,34.74
2022-07-29T12:16:59.612Z,34.68
2022-07-29T12:19:37.550Z,34.57
2022-07-29T12:22:13.420Z,33.90
2022-07-29T12:24:50.793Z,33.95
2022-07-29T12:27:29.306Z,34.51
2022-07-29T12:29:58.943Z,34.41
2022-07-29T12:32:36.658Z,34.41
2022-07-29T12:35:11.150Z,34.36
2022-07-29T12:37:49.371Z,34.03
2022-07-29T12:40:30.490Z,33.45
2022-07-29T13:20:40.145Z,31.95
2022-07-29T13:23:18.621Z,31.91
2022-07-29T13:26:14.796Z,31.84
2022-07-29T13:28:44.348Z,31.75
2022-07-29T13:31:22.016Z,31.58
2022-07-29T13:34:01.632Z,31.54
2022-07-29T13:37:15.204Z,31.18
2022-07-29T13:40:01.265Z,30.96
2022-07-29T13:42:42.463Z,30.79
2022-07-29T13:45:29.173Z,30.91
2022-07-29T13:50:54.979Z,30.48
2022-07-29T13:53:27.380Z,30.54
2022-07-29T13:56:46.285Z,30.41
2022-07-29T13:59:05.608Z,30.29
2022-07-29T14:01:33.627Z,30.31
2022-07-29T14:04:01.271Z,30.22
2022-07-29T14:06:28.962Z,29.88
2022-07-29T14:08:58.794Z,29.74
2022-07-29T14:11:26.276Z,29.65
2022-07-29T14:13:53.802Z,29.70
2022-07-29T14:16:21.361Z,29.84
2022-07-29T14:18:48.924Z,29.74
2022-07-29T14:21:16.566Z,29.50
2022-07-29T14:23:44.166Z,29.45
2022-07-29T14:26:15.935Z,29.38
2022-07-29T14:28:49.316Z,29.33
2022-07-29T14:31:17.180Z,29.34
2022-07-29T14:33:46.261Z,29.31
2022-07-29T14:36:17.004Z,29.31
2022-07-29T14:38:44.565Z,29.30
2022-07-29T14:41:13.608Z,29.19
2022-07-29T14:43:42.333Z,29.14
2022-07-29T14:46:10.207Z,29.11
2022-07-29T14:48:37.946Z,29.22
2022-07-29T14:51:06.265Z,29.26
2022-07-29T14:53:34.046Z,29.30
2022-07-29T14:56:20.896Z,29.26
2022-07-29T14:58:51.827Z,29.28
2022-07-29T15:01:20.285Z,29.37
2022-07-29T15:03:48.310Z,29.42
2022-07-29T15:06:16.537Z,29.24
2022-07-29T15:08:44.504Z,29.32
2022-07-29T15:11:12.361Z,29.49
2022-07-29T15:13:40.460Z,29.60
2022-07-29T15:16:10.191Z,29.72
2022-07-29T15:18:39.577Z,29.63
2022-07-29T15:21:08.568Z,29.47
2022-07-29T15:23:37.305Z,29.38
2022-07-29T15:26:05.816Z,29.36
2022-07-29T15:28:33.901Z,29.39
2022-07-29T15:31:01.669Z,29.22
2022-07-29T15:33:30.883Z,29.09
2022-07-29T15:35:58.895Z,29.08
2022-07-29T15:38:28.675Z,29.08
2022-07-29T15:40:56.914Z,29.16
2022-07-29T15:43:25.000Z,29.36
2022-07-29T15:46:11.889Z,29.51
2022-07-29T15:48:42.193Z,29.62
2022-07-29T15:51:10.102Z,29.70
2022-07-29T15:53:38.073Z,29.75
2022-07-29T15:56:06.639Z,29.80
2022-07-29T15:58:34.428Z,29.78
2022-07-29T16:01:02.393Z,29.80
2022-07-29T16:03:30.885Z,29.81
2022-07-29T16:06:00.248Z,29.72
2022-07-29T16:08:28.325Z,29.52
2022-07-29T16:10:56.233Z,29.52
2022-07-29T16:13:24.250Z,29.53
2022-07-29T16:16:02.129Z,29.51
2022-07-29T16:18:33.732Z,29.50
2022-07-29T16:21:02.938Z,29.32
2022-07-29T16:23:30.927Z,29.34
2022-07-29T16:26:00.434Z,29.39
2022-07-29T16:28:29.368Z,29.21
2022-07-29T16:30:57.558Z,29.09
2022-07-29T16:33:25.871Z,29.05
2022-07-29T16:35:54.124Z,28.97
2022-07-29T16:38:23.299Z,28.89
2022-07-29T16:40:51.222Z,28.86
2022-07-29T16:43:19.275Z,28.78
2022-07-29T16:45:47.324Z,28.77
2022-07-29T16:48:17.941Z,28.75
2022-07-29T16:50:46.565Z,28.85
2022-07-29T16:53:14.533Z,28.78
2022-07-29T16:55:43.941Z,28.61
2022-07-29T16:58:12.568Z,28.67
2022-07-29T17:00:40.807Z,28.77
2022-07-29T17:03:08.956Z,28.81
2022-07-29T17:05:52.070Z,28.74
2022-07-29T17:08:22.300Z,28.70
2022-07-29T17:10:52.011Z,28.65
2022-07-29T17:13:20.105Z,28.49
2022-07-29T17:15:49.634Z,28.36
2022-07-29T17:18:17.625Z,28.29
2022-07-29T17:20:45.743Z,28.22
2022-07-29T17:23:13.555Z,28.10
2022-07-29T17:25:41.374Z,28.04
2022-07-29T17:28:10.685Z,28.04
2022-07-29T17:30:38.790Z,28.04
2022-07-29T17:33:06.644Z,28.05
2022-07-29T17:35:52.387Z,27.99
2022-07-29T17:38:20.313Z,28.02
2022-07-29T17:40:48.630Z,28.08
2022-07-29T17:43:17.794Z,28.09
2022-07-29T17:45:50.339Z,28.10
2022-07-29T17:48:19.891Z,28.03
2022-07-29T17:50:48.288Z,27.91
2022-07-29T17:53:16.906Z,27.84
2022-07-29T17:55:45.844Z,27.85
2022-07-29T17:58:13.814Z,27.84
2022-07-29T18:00:43.655Z,27.85
2022-07-29T18:03:12.391Z,27.83
2022-07-29T18:05:40.517Z,27.80
2022-07-29T18:08:09.238Z,27.76
2022-07-29T18:10:38.164Z,27.71
2022-07-29T18:13:06.169Z,27.70
2022-07-29T18:15:34.392Z,27.64
2022-07-29T18:18:03.746Z,27.60
2022-07-29T18:20:32.139Z,27.58
2022-07-29T18:23:00.160Z,27.53
2022-07-29T18:25:28.960Z,27.46
2022-07-29T18:28:00.279Z,27.43
2022-07-29T18:30:29.043Z,27.38
2022-07-29T18:33:19.854Z,27.33
2022-07-29T18:35:46.197Z,27.29
2022-07-29T18:38:14.245Z,27.25
2022-07-29T18:40:43.024Z,27.20
2022-07-29T18:43:11.402Z,27.15
2022-07-29T18:45:39.812Z,27.08
2022-07-29T18:48:08.449Z,27.02
2022-07-29T18:50:41.011Z,26.96
2022-07-29T18:53:10.153Z,26.89
2022-07-29T18:55:38.109Z,26.84
2022-07-29T18:58:06.190Z,26.76
2022-07-29T19:00:34.187Z,26.72
2022-07-29T19:03:03.217Z,26.66
2022-07-29T19:05:31.488Z,26.57
2022-07-29T19:07:59.602Z,26.50
2022-07-29T19:10:28.905Z,26.44
2022-07-29T19:12:57.852Z,26.38
2022-07-29T19:15:26.103Z,26.34
2022-07-29T19:17:56.655Z,26.28
2022-07-29T19:20:28.455Z,26.24
2022-07-29T19:22:56.230Z,26.11
2022-07-29T19:25:24.086Z,26.02
2022-07-29T19:27:53.439Z,25.91
2022-07-29T19:30:21.537Z,25.84
2022-07-29T19:32:49.745Z,25.82
2022-07-29T19:35:28.319Z,25.80
2022-07-29T19:37:58.985Z,25.75
2022-07-29T19:40:28.383Z,25.72
2022-07-29T19:42:57.779Z,25.67
2022-07-29T19:45:26.765Z,25.63
2022-07-29T19:48:00.767Z,25.61
2022-07-29T19:50:29.328Z,25.59
2022-07-29T19:52:57.173Z,25.54
2022-07-29T19:55:24.965Z,25.50
2022-07-29T19:57:53.855Z,25.44
2022-07-29T20:00:23.821Z,25.38
2022-07-29T20:02:52.230Z,25.35
2022-07-29T20:05:20.235Z,25.30
2022-07-29T20:07:48.291Z,25.27
2022-07-29T20:10:16.345Z,25.24
2022-07-29T20:12:44.181Z,25.20
2022-07-29T20:15:16.665Z,25.14
2022-07-29T20:17:46.093Z,25.09
2022-07-29T20:20:14.094Z,25.06
2022-07-29T20:22:42.319Z,25.01
2022-07-29T20:25:11.939Z,24.98
2022-07-29T20:27:40.731Z,24.94
2022-07-29T20:30:09.611Z,24.89
2022-07-29T20:32:38.907Z,24.85
2022-07-29T20:35:10.060Z,24.82
2022-07-29T20:37:55.705Z,24.80
2022-07-29T20:40:24.829Z,24.75
2022-07-29T20:42:52.726Z,24.69
2022-07-29T20:45:20.977Z,24.62
2022-07-29T20:47:49.016Z,24.60
2022-07-29T20:50:18.477Z,24.57
2022-07-29T20:52:46.233Z,24.56
2022-07-29T20:55:14.385Z,24.54
2022-07-29T20:57:42.765Z,24.50
2022-07-29T21:00:11.962Z,24.47
2022-07-29T21:02:40.069Z,24.45
2022-07-29T21:05:08.321Z,24.42
2022-07-29T21:07:37.711Z,24.39
2022-07-29T21:10:06.384Z,24.35
2022-07-29T21:12:34.474Z,24.30
2022-07-29T21:15:05.851Z,24.27
2022-07-29T21:17:36.168Z,24.25
2022-07-29T21:20:05.528Z,24.22
2022-07-29T21:22:33.464Z,24.19
2022-07-29T21:25:02.651Z,24.16
2022-07-29T21:27:48.101Z,24.13
2022-07-29T21:30:16.094Z,24.08
2022-07-29T21:32:44.088Z,24.04
2022-07-29T21:35:23.435Z,23.99
2022-07-29T21:38:00.664Z,23.92
2022-07-29T21:41:05.686Z,23.88
2022-07-29T21:43:42.899Z,23.82
2022-07-29T21:46:18.530Z,23.74
2022-07-29T21:48:51.145Z,23.67
2022-07-29T21:51:23.938Z,23.64
2022-07-29T21:53:56.552Z,23.63
2022-07-29T21:56:27.936Z,23.59
2022-07-29T21:59:06.201Z,23.56
2022-07-29T22:01:45.369Z,23.53
2022-07-29T22:04:16.318Z,23.45
2022-07-29T22:06:46.185Z,23.34
2022-07-29T22:09:58.844Z,23.22
2022-07-29T22:12:35.028Z,23.09
2022-07-29T22:15:50.597Z,23.02
2022-07-29T22:18:27.534Z,23.00
2022-07-29T22:21:03.187Z,22.98
2022-07-29T22:23:35.868Z,22.95
2022-07-29T22:26:05.476Z,22.93
2022-07-29T22:28:37.204Z,22.92
2022-07-29T22:31:09.022Z,22.94
2022-07-29T22:33:41.770Z,22.94
2022-07-29T22:36:25.091Z,22.91
2022-07-29T22:38:57.918Z,22.84
2022-07-29T22:41:30.453Z,22.75
2022-07-29T22:44:08.970Z,22.68
2022-07-29T22:46:43.791Z,22.70
2022-07-29T22:49:14.153Z,22.68
2022-07-29T22:51:45.773Z,22.69
2022-07-29T22:54:17.121Z,22.68
2022-07-29T22:56:46.652Z,22.62
2022-07-29T22:59:20.393Z,22.61
2022-07-29T23:01:53.557Z,22.61
2022-07-29T23:04:30.734Z,22.60
2022-07-29T23:07:05.019Z,22.55
2022-07-29T23:09:38.149Z,22.55
2022-07-29T23:12:10.790Z,22.51
2022-07-29T23:14:45.007Z,22.48
2022-07-29T23:17:24.980Z,22.48
2022-07-29T23:19:54.866Z,22.47
2022-07-29T23:22:27.278Z,22.43
2022-07-29T23:24:57.150Z,22.40
2022-07-29T23:27:35.549Z,22.42
2022-07-29T23:30:09.820Z,22.39
2022-07-29T23:32:40.103Z,22.36
2022-07-29T23:35:15.228Z,22.34
2022-07-29T23:37:44.487Z,22.31
2022-07-29T23:40:31.195Z,22.28
2022-07-29T23:42:59.326Z,22.26
2022-07-29T23:45:39.902Z,22.21
2022-07-29T23:48:12.532Z,22.19
2022-07-29T23:50:40.370Z,22.18
2022-07-29T23:53:08.253Z,22.16
2022-07-29T23:55:39.263Z,22.14
2022-07-29T23:58:07.431Z,22.13
